Time;durP1;ratioP1;P1;durP2;ratioP2;P2;SDS_P1;SDS_P2;PMS_P1;PMS_P2;Temp;Humidity;BMP_temperature;BMP_pressure;BME280_temperature;BME280_humidity;BME280_pressure;Samples;Min_cycle;Max_cycle;Signal;HPM_P1;HPM_P2
2024/02/22 00:00:47;;;;;;;0.60;0.55;;;;;;;;;;5033667;28;20033;-80
2024/02/22 00:03:13;;;;;;;0.98;0.68;;;;;;;;;;5018964;28;20097;-81
2024/02/22 00:05:39;;;;;;;0.40;0.40;;;;;;;;;;5018654;28;20121;-80
2024/02/22 00:08:05;;;;;;;0.30;0.30;;;;;;;;;;5033768;28;20033;-79
2024/02/22 00:10:33;;;;;;;0.50;0.50;;;;;;;;;;5016453;28;20026;-80
2024/02/22 00:12:59;;;;;;;0.30;0.30;;;;;;;;;;5020474;28;20101;-78
2024/02/22 00:15:30;;;;;;;0.30;0.30;;;;;;;;;;5021827;28;20033;-80
2024/02/22 00:17:57;;;;;;;0.83;0.60;;;;;;;;;;5029666;28;20052;-80
2024/02/22 00:20:23;;;;;;;0.57;0.50;;;;;;;;;;5024928;28;20022;-79
2024/02/22 00:22:49;;;;;;;0.40;0.30;;;;;;;;;;5022112;28;20058;-80
2024/02/22 00:25:15;;;;;;;0.60;0.60;;;;;;;;;;5033549;28;20026;-79
2024/02/22 00:27:41;;;;;;;0.50;0.50;;;;;;;;;;5017854;28;20025;-80
2024/02/22 00:30:14;;;;;;;0.65;0.47;;;;;;;;;;5017236;28;20076;-80
2024/02/22 00:32:43;;;;;;;0.45;0.40;;;;;;;;;;5017325;28;20028;-79
2024/02/22 00:35:10;;;;;;;0.30;0.30;;;;;;;;;;5016158;28;20037;-81
2024/02/22 00:37:36;;;;;;;0.30;0.30;;;;;;;;;;5017773;28;20034;-79
2024/02/22 00:40:04;;;;;;;0.40;0.40;;;;;;;;;;5024412;28;20121;-80
2024/02/22 00:42:30;;;;;;;0.70;0.55;;;;;;;;;;5017512;28;20018;-80
2024/02/22 00:44:56;;;;;;;0.50;0.50;;;;;;;;;;5016453;28;20076;-79
2024/02/22 00:47:23;;;;;;;0.65;0.50;;;;;;;;;;5016882;28;20030;-80
2024/02/22 00:49:49;;;;;;;0.35;0.30;;;;;;;;;;5016455;28;20022;-80
2024/02/22 00:52:15;;;;;;;0.70;0.40;;;;;;;;;;5016591;28;20046;-79
2024/02/22 00:54:42;;;;;;;0.40;0.40;;;;;;;;;;5015841;28;20025;-79
2024/02/22 00:57:08;;;;;;;0.57;0.30;;;;;;;;;;5020972;28;20025;-79
2024/02/22 00:59:34;;;;;;;0.90;0.38;;;;;;;;;;5028224;28;20014;-80
2024/02/22 01:02:01;;;;;;;0.30;0.30;;;;;;;;;;5016488;28;20102;-79
2024/02/22 01:04:27;;;;;;;0.47;0.40;;;;;;;;;;5015965;28;20022;-79
2024/02/22 01:06:54;;;;;;;1.70;0.50;;;;;;;;;;5007371;28;20024;-79
2024/02/22 01:09:20;;;;;;;0.60;0.60;;;;;;;;;;5014668;28;20029;-79
2024/02/22 01:11:47;;;;;;;0.30;0.30;;;;;;;;;;5030829;28;20033;-78
2024/02/22 01:14:14;;;;;;;0.30;0.30;;;;;;;;;;5015380;28;20028;-78
2024/02/22 01:16:40;;;;;;;0.30;0.30;;;;;;;;;;5015393;28;20584;-78
2024/02/22 01:19:06;;;;;;;0.40;0.30;;;;;;;;;;5015132;28;20096;-78
2024/02/22 01:21:32;;;;;;;0.32;0.30;;;;;;;;;;5014253;28;20420;-79
2024/02/22 01:23:58;;;;;;;0.52;0.30;;;;;;;;;;5016773;28;20359;-79
2024/02/22 01:26:24;;;;;;;0.43;0.43;;;;;;;;;;5041060;28;20010;-81
2024/02/22 01:28:50;;;;;;;0.43;0.20;;;;;;;;;;5036271;28;20014;-79
2024/02/22 01:31:16;;;;;;;0.60;0.40;;;;;;;;;;5035669;28;20064;-80
2024/02/22 01:33:46;;;;;;;0.22;0.22;;;;;;;;;;5021693;28;20030;-79
2024/02/22 01:36:12;;;;;;;1.52;0.50;;;;;;;;;;5015676;28;20018;-79
2024/02/22 01:38:38;;;;;;;0.30;0.30;;;;;;;;;;5014766;28;20050;-79
2024/02/22 01:41:05;;;;;;;0.20;0.10;;;;;;;;;;5014047;28;20033;-79
2024/02/22 01:43:32;;;;;;;0.10;0.10;;;;;;;;;;5015171;28;20022;-80
2024/02/22 01:45:58;;;;;;;0.20;0.20;;;;;;;;;;5023214;28;20030;-79
2024/02/22 01:48:24;;;;;;;0.30;0.10;;;;;;;;;;5035562;28;20030;-79
2024/02/22 01:50:54;;;;;;;0.25;0.20;;;;;;;;;;5035897;28;20026;-79
2024/02/22 01:53:21;;;;;;;0.20;0.20;;;;;;;;;;5036210;28;20022;-80
2024/02/22 01:55:47;;;;;;;0.75;0.10;;;;;;;;;;5039213;28;20033;-81
2024/02/22 01:58:13;;;;;;;0.10;0.10;;;;;;;;;;5047150;28;20020;-79
2024/02/22 02:00:40;;;;;;;0.25;0.25;;;;;;;;;;5053891;28;20201;-81
2024/02/22 02:03:07;;;;;;;0.10;0.10;;;;;;;;;;5052479;28;20033;-80
2024/02/22 02:05:33;;;;;;;0.25;0.20;;;;;;;;;;5050480;28;20016;-79
2024/02/22 02:08:00;;;;;;;0.52;0.30;;;;;;;;;;5024717;28;20026;-79
2024/02/22 02:10:26;;;;;;;0.20;0.20;;;;;;;;;;5017437;28;20387;-79
2024/02/22 02:12:52;;;;;;;0.10;0.10;;;;;;;;;;5014767;28;20021;-78
2024/02/22 02:15:18;;;;;;;0.45;0.25;;;;;;;;;;5017738;28;20018;-79
2024/02/22 02:17:44;;;;;;;1.55;0.13;;;;;;;;;;5019945;28;20057;-79
2024/02/22 02:20:11;;;;;;;0.35;0.35;;;;;;;;;;5018590;28;20044;-79
2024/02/22 02:22:51;;;;;;;0.20;0.10;;;;;;;;;;5015323;28;20022;-79
2024/02/22 02:25:17;;;;;;;0.00;0.00;;;;;;;;;;5017286;28;20022;-79
2024/02/22 02:27:44;;;;;;;0.68;0.10;;;;;;;;;;5016548;28;20034;-80
2024/02/22 02:30:10;;;;;;;0.08;0.08;;;;;;;;;;5014770;28;20109;-79
2024/02/22 02:32:38;;;;;;;0.20;0.20;;;;;;;;;;5014575;28;20083;-79
2024/02/22 02:35:04;;;;;;;0.10;0.10;;;;;;;;;;5017560;28;20022;-78
2024/02/22 02:37:30;;;;;;;0.13;0.10;;;;;;;;;;5017393;28;20026;-79
2024/02/22 02:39:56;;;;;;;0.10;0.10;;;;;;;;;;5018552;28;20026;-79
2024/02/22 02:42:22;;;;;;;0.20;0.20;;;;;;;;;;5017827;28;20021;-78
2024/02/22 02:44:48;;;;;;;0.10;0.10;;;;;;;;;;5017775;28;20050;-78
2024/02/22 02:47:15;;;;;;;0.00;0.00;;;;;;;;;;5032027;28;20034;-78
2024/02/22 02:49:42;;;;;;;0.10;0.10;;;;;;;;;;5017854;28;20040;-78
2024/02/22 02:52:08;;;;;;;0.10;0.10;;;;;;;;;;5018908;28;20430;-79
2024/02/22 02:54:34;;;;;;;0.10;0.10;;;;;;;;;;5018353;28;20097;-79
2024/02/22 02:57:00;;;;;;;0.10;0.10;;;;;;;;;;5017387;28;20021;-79
2024/02/22 02:59:26;;;;;;;0.43;0.10;;;;;;;;;;5018341;28;20018;-80
2024/02/22 03:01:53;;;;;;;0.95;0.30;;;;;;;;;;5016118;28;20021;-79
2024/02/22 03:04:19;;;;;;;0.10;0.10;;;;;;;;;;5017834;28;20429;-80
2024/02/22 03:06:46;;;;;;;0.10;0.10;;;;;;;;;;5016855;28;20025;-80
2024/02/22 03:09:13;;;;;;;0.20;0.20;;;;;;;;;;5017854;28;20018;-79
2024/02/22 03:11:39;;;;;;;0.20;0.10;;;;;;;;;;5017424;28;20022;-79
2024/02/22 03:14:05;;;;;;;0.15;0.08;;;;;;;;;;5017517;28;20385;-79
2024/02/22 03:16:32;;;;;;;0.20;0.20;;;;;;;;;;5016475;28;20096;-80
2024/02/22 03:18:58;;;;;;;0.00;0.00;;;;;;;;;;5017270;28;20337;-79
2024/02/22 03:21:25;;;;;;;0.10;0.10;;;;;;;;;;5018307;28;20030;-78
2024/02/22 03:23:51;;;;;;;0.08;0.08;;;;;;;;;;5016209;28;20018;-78
2024/02/22 03:26:17;;;;;;;0.38;0.13;;;;;;;;;;5039153;28;20022;-79
2024/02/22 03:28:45;;;;;;;0.10;0.10;;;;;;;;;;5035139;28;20049;-79
2024/02/22 03:31:11;;;;;;;0.17;0.10;;;;;;;;;;5025544;28;20014;-80
2024/02/22 03:33:37;;;;;;;0.00;0.00;;;;;;;;;;5017807;28;20022;-79
2024/02/22 03:36:06;;;;;;;0.00;0.00;;;;;;;;;;5017694;28;20060;-80
2024/02/22 03:38:33;;;;;;;0.00;0.00;;;;;;;;;;5016991;28;20052;-80
2024/02/22 03:40:59;;;;;;;0.10;0.10;;;;;;;;;;5029557;28;20077;-80
2024/02/22 03:43:25;;;;;;;0.10;0.10;;;;;;;;;;5012913;28;20048;-79
2024/02/22 03:45:51;;;;;;;0.28;0.28;;;;;;;;;;5016661;28;20070;-80
2024/02/22 03:48:17;;;;;;;0.20;0.10;;;;;;;;;;5016115;28;20026;-79
2024/02/22 03:50:44;;;;;;;0.00;0.00;;;;;;;;;;5017180;28;20112;-80
2024/02/22 03:53:10;;;;;;;0.28;0.10;;;;;;;;;;5017395;28;20018;-78
2024/02/22 03:55:36;;;;;;;0.10;0.10;;;;;;;;;;5016851;28;20022;-80
2024/02/22 03:58:02;;;;;;;0.20;0.20;;;;;;;;;;5020338;28;20017;-80
2024/02/22 04:00:28;;;;;;;0.38;0.20;;;;;;;;;;5020337;28;20045;-80
2024/02/22 04:02:54;;;;;;;0.20;0.10;;;;;;;;;;5017331;28;20032;-80
2024/02/22 04:05:20;;;;;;;0.20;0.20;;;;;;;;;;5017208;28;20029;-80
2024/02/22 04:07:46;;;;;;;0.20;0.20;;;;;;;;;;5022766;28;20030;-80
2024/02/22 04:10:13;;;;;;;0.82;0.10;;;;;;;;;;5026757;28;20473;-80
2024/02/22 04:12:39;;;;;;;0.10;0.10;;;;;;;;;;5017362;28;20025;-79
2024/02/22 04:15:05;;;;;;;0.17;0.17;;;;;;;;;;5022304;28;20022;-78
2024/02/22 04:17:31;;;;;;;0.10;0.10;;;;;;;;;;5019391;28;20025;-78
2024/02/22 04:19:57;;;;;;;0.17;0.17;;;;;;;;;;5011993;28;20022;-81
2024/02/22 04:22:25;;;;;;;0.10;0.10;;;;;;;;;;5017858;28;20496;-79
2024/02/22 04:24:51;;;;;;;0.10;0.10;;;;;;;;;;5017170;28;20527;-80
2024/02/22 04:27:17;;;;;;;0.00;0.00;;;;;;;;;;5016711;28;20093;-80
2024/02/22 04:29:43;;;;;;;0.20;0.10;;;;;;;;;;5025938;28;20037;-79
2024/02/22 04:32:09;;;;;;;0.13;0.10;;;;;;;;;;5017438;28;20060;-79
2024/02/22 04:34:36;;;;;;;0.22;0.20;;;;;;;;;;5017081;28;20111;-80
2024/02/22 04:37:02;;;;;;;0.17;0.17;;;;;;;;;;5031865;28;20048;-79
2024/02/22 04:39:28;;;;;;;0.20;0.20;;;;;;;;;;5023485;28;20014;-80
2024/02/22 04:41:54;;;;;;;0.20;0.20;;;;;;;;;;5018692;28;20021;-79
2024/02/22 04:44:20;;;;;;;0.30;0.20;;;;;;;;;;5016365;28;20025;-79
2024/02/22 04:46:46;;;;;;;0.20;0.20;;;;;;;;;;5027967;28;20033;-79
2024/02/22 04:49:13;;;;;;;0.00;0.00;;;;;;;;;;5036649;28;20091;-81
2024/02/22 04:51:40;;;;;;;0.13;0.10;;;;;;;;;;5009426;28;20049;-81
2024/02/22 04:54:06;;;;;;;0.10;0.10;;;;;;;;;;5020804;28;20109;-81
2024/02/22 04:56:32;;;;;;;0.10;0.10;;;;;;;;;;5038806;28;20033;-81
2024/02/22 04:58:58;;;;;;;0.20;0.20;;;;;;;;;;5027912;28;20022;-80
2024/02/22 05:01:30;;;;;;;0.05;0.05;;;;;;;;;;5043779;28;20033;-80
2024/02/22 05:03:56;;;;;;;0.28;0.13;;;;;;;;;;5026348;28;20096;-80
2024/02/22 05:06:22;;;;;;;0.20;0.20;;;;;;;;;;5017748;28;20034;-81
2024/02/22 05:08:48;;;;;;;0.10;0.10;;;;;;;;;;5022494;28;20029;-82
2024/02/22 05:11:15;;;;;;;0.10;0.10;;;;;;;;;;5032567;28;20021;-81
2024/02/22 05:13:50;;;;;;;0.20;0.10;;;;;;;;;;5027135;28;20059;-82
2024/02/22 05:16:16;;;;;;;0.30;0.20;;;;;;;;;;5034209;28;20014;-84
2024/02/22 05:18:42;;;;;;;0.20;0.20;;;;;;;;;;5034868;28;20029;-85
2024/02/22 05:21:08;;;;;;;0.10;0.10;;;;;;;;;;5020453;28;20049;-81
2024/02/22 05:23:34;;;;;;;0.20;0.20;;;;;;;;;;5021573;28;20056;-82
2024/02/22 05:26:00;;;;;;;0.32;0.30;;;;;;;;;;5044310;28;20018;-80
2024/02/22 05:28:27;;;;;;;0.25;0.25;;;;;;;;;;5043224;28;20030;-80
2024/02/22 05:30:53;;;;;;;0.20;0.20;;;;;;;;;;5039815;28;20462;-82
2024/02/22 05:33:19;;;;;;;0.43;0.30;;;;;;;;;;5025574;28;20029;-82
2024/02/22 05:35:45;;;;;;;0.28;0.28;;;;;;;;;;5025634;28;20018;-82
2024/02/22 05:38:11;;;;;;;0.20;0.20;;;;;;;;;;5024642;28;20137;-81
2024/02/22 05:40:38;;;;;;;0.20;0.20;;;;;;;;;;5025177;28;20033;-81
2024/02/22 05:43:04;;;;;;;0.30;0.30;;;;;;;;;;5019529;28;20030;-85
2024/02/22 05:45:34;;;;;;;0.40;0.30;;;;;;;;;;5022976;28;20052;-84
2024/02/22 05:48:02;;;;;;;0.57;0.50;;;;;;;;;;5027211;28;20030;-83
2024/02/22 05:50:28;;;;;;;0.40;0.40;;;;;;;;;;5034081;28;20036;-84
2024/02/22 05:52:54;;;;;;;0.63;0.50;;;;;;;;;;5019728;28;20026;-81
2024/02/22 05:55:20;;;;;;;0.70;0.40;;;;;;;;;;5031037;28;20021;-84
2024/02/22 05:57:46;;;;;;;0.52;0.30;;;;;;;;;;5018016;28;20392;-83
2024/02/22 06:00:14;;;;;;;1.13;0.40;;;;;;;;;;5020236;28;20544;-82
2024/02/22 06:02:40;;;;;;;0.70;0.38;;;;;;;;;;5019913;28;20049;-83
2024/02/22 06:05:07;;;;;;;0.50;0.50;;;;;;;;;;5018700;28;20022;-82
2024/02/22 06:07:33;;;;;;;0.73;0.50;;;;;;;;;;5016548;28;20019;-81
2024/02/22 06:09:59;;;;;;;1.02;0.70;;;;;;;;;;5018642;28;20377;-82
2024/02/22 06:12:25;;;;;;;0.50;0.50;;;;;;;;;;5020214;28;20160;-80
2024/02/22 06:14:51;;;;;;;0.60;0.55;;;;;;;;;;5022797;28;20033;-82
2024/02/22 06:17:17;;;;;;;1.25;0.88;;;;;;;;;;5025428;28;20101;-82
2024/02/22 06:19:43;;;;;;;0.50;0.50;;;;;;;;;;5022109;28;20380;-81
2024/02/22 06:22:10;;;;;;;0.50;0.50;;;;;;;;;;5025789;28;20053;-79
2024/02/22 06:24:36;;;;;;;0.60;0.60;;;;;;;;;;5040372;28;20061;-80
2024/02/22 06:27:02;;;;;;;0.55;0.55;;;;;;;;;;5032808;28;20110;-80
2024/02/22 06:29:28;;;;;;;0.60;0.40;;;;;;;;;;5022016;28;20002;-81
2024/02/22 06:31:54;;;;;;;0.63;0.43;;;;;;;;;;5022610;28;20041;-81
2024/02/22 06:34:21;;;;;;;0.50;0.50;;;;;;;;;;5020055;28;20026;-81
2024/02/22 06:36:47;;;;;;;0.93;0.50;;;;;;;;;;5019334;28;20384;-80
2024/02/22 06:39:13;;;;;;;0.40;0.40;;;;;;;;;;5021534;28;20386;-81
2024/02/22 06:41:39;;;;;;;0.75;0.63;;;;;;;;;;5022580;28;20037;-79
2024/02/22 06:44:05;;;;;;;0.63;0.55;;;;;;;;;;5021669;28;20030;-80
2024/02/22 06:46:31;;;;;;;0.75;0.65;;;;;;;;;;5042569;28;20037;-80
2024/02/22 06:48:57;;;;;;;0.32;0.32;;;;;;;;;;5020768;28;20022;-81
2024/02/22 06:51:23;;;;;;;0.57;0.45;;;;;;;;;;5021943;28;20039;-80
2024/02/22 06:53:50;;;;;;;0.45;0.45;;;;;;;;;;5020504;28;20022;-81
2024/02/22 06:56:16;;;;;;;0.93;0.57;;;;;;;;;;5019881;28;20377;-81
2024/02/22 06:58:42;;;;;;;0.30;0.30;;;;;;;;;;5018381;28;20021;-79
2024/02/22 07:01:08;;;;;;;0.47;0.30;;;;;;;;;;5011384;28;20040;-79
2024/02/22 07:03:34;;;;;;;0.73;0.50;;;;;;;;;;5019414;28;20073;-79
2024/02/22 07:06:01;;;;;;;0.38;0.38;;;;;;;;;;5026270;28;20018;-81
2024/02/22 07:08:28;;;;;;;1.52;0.60;;;;;;;;;;5026748;28;20087;-79
2024/02/22 07:10:54;;;;;;;0.63;0.60;;;;;;;;;;5031591;28;20659;-79
2024/02/22 07:13:20;;;;;;;0.47;0.47;;;;;;;;;;5026801;28;20034;-79
2024/02/22 07:15:46;;;;;;;0.75;0.57;;;;;;;;;;5020519;28;20659;-79
2024/02/22 07:18:12;;;;;;;0.70;0.50;;;;;;;;;;5033999;28;20026;-79
2024/02/22 07:20:38;;;;;;;0.63;0.63;;;;;;;;;;5018505;28;20022;-78
2024/02/22 07:23:05;;;;;;;0.50;0.50;;;;;;;;;;5019842;28;20436;-77
2024/02/22 07:25:31;;;;;;;0.85;0.52;;;;;;;;;;5021472;28;20094;-78
2024/02/22 07:27:57;;;;;;;0.77;0.77;;;;;;;;;;5019068;28;20034;-79
2024/02/22 07:30:26;;;;;;;0.77;0.70;;;;;;;;;;5019749;28;20466;-80
2024/02/22 07:32:52;;;;;;;1.58;0.65;;;;;;;;;;5018201;28;20026;-79
2024/02/22 07:35:18;;;;;;;0.80;0.80;;;;;;;;;;5020438;28;20435;-79
2024/02/22 07:37:44;;;;;;;0.90;0.70;;;;;;;;;;5018093;28;20054;-80
2024/02/22 07:40:10;;;;;;;0.75;0.50;;;;;;;;;;5021514;28;20029;-79
2024/02/22 07:42:37;;;;;;;0.68;0.45;;;;;;;;;;5018770;28;20263;-79
2024/02/22 07:45:04;;;;;;;0.40;0.40;;;;;;;;;;5013717;28;20037;-79
2024/02/22 07:47:30;;;;;;;0.40;0.40;;;;;;;;;;5032173;28;20029;-78
2024/02/22 07:49:56;;;;;;;0.32;0.32;;;;;;;;;;5016747;28;20042;-79
2024/02/22 07:52:23;;;;;;;0.40;0.40;;;;;;;;;;5019498;28;20105;-79
2024/02/22 07:54:49;;;;;;;0.55;0.40;;;;;;;;;;5016700;28;20068;-78
2024/02/22 07:57:15;;;;;;;0.50;0.50;;;;;;;;;;5018401;28;20025;-78
2024/02/22 07:59:41;;;;;;;0.40;0.40;;;;;;;;;;5019265;28;20028;-80
2024/02/22 08:02:07;;;;;;;0.50;0.50;;;;;;;;;;5018501;28;20034;-80
2024/02/22 08:04:34;;;;;;;0.38;0.38;;;;;;;;;;5021701;28;20100;-78
2024/02/22 08:07:00;;;;;;;0.40;0.32;;;;;;;;;;5019382;28;20397;-79
2024/02/22 08:09:26;;;;;;;1.05;0.60;;;;;;;;;;5018558;28;20041;-78
2024/02/22 08:11:52;;;;;;;0.57;0.40;;;;;;;;;;5018933;28;20037;-79
2024/02/22 08:14:19;;;;;;;1.73;1.00;;;;;;;;;;5015575;28;20061;-79
2024/02/22 08:16:46;;;;;;;0.60;0.60;;;;;;;;;;5015832;28;20022;-78
2024/02/22 08:19:12;;;;;;;0.50;0.50;;;;;;;;;;5014057;28;20129;-78
2024/02/22 08:21:38;;;;;;;0.52;0.50;;;;;;;;;;5010467;28;20080;-78
2024/02/22 08:24:05;;;;;;;1.38;0.60;;;;;;;;;;5011726;28;20053;-79
2024/02/22 08:26:31;;;;;;;0.70;0.70;;;;;;;;;;5013426;28;20109;-78
2024/02/22 08:28:57;;;;;;;0.60;0.60;;;;;;;;;;5013141;28;20052;-77
2024/02/22 08:31:24;;;;;;;1.27;0.73;;;;;;;;;;5020938;28;20105;-77
2024/02/22 08:33:50;;;;;;;0.45;0.45;;;;;;;;;;5016656;28;20029;-78
2024/02/22 08:36:16;;;;;;;1.40;0.63;;;;;;;;;;5018489;28;20068;-77
2024/02/22 08:38:42;;;;;;;0.40;0.40;;;;;;;;;;5015922;28;20025;-75
2024/02/22 08:41:09;;;;;;;0.73;0.68;;;;;;;;;;5019196;28;20029;-77
2024/02/22 08:43:35;;;;;;;1.17;0.70;;;;;;;;;;5018567;28;20088;-77
2024/02/22 08:46:02;;;;;;;0.65;0.65;;;;;;;;;;5021671;28;20064;-78
2024/02/22 08:48:28;;;;;;;1.13;1.02;;;;;;;;;;5026491;28;20034;-80
2024/02/22 08:50:57;;;;;;;0.95;0.88;;;;;;;;;;5022401;28;20085;-81
2024/02/22 08:53:24;;;;;;;0.90;0.85;;;;;;;;;;5022898;28;20077;-80
2024/02/22 08:55:50;;;;;;;0.95;0.90;;;;;;;;;;5021061;28;20030;-82
2024/02/22 08:58:17;;;;;;;1.38;1.00;;;;;;;;;;5025823;28;20021;-81
2024/02/22 09:00:43;;;;;;;0.80;0.80;;;;;;;;;;5045136;28;20061;-80
2024/02/22 09:03:09;;;;;;;1.20;0.95;;;;;;;;;;5025943;28;20056;-81
2024/02/22 09:05:36;;;;;;;1.25;1.10;;;;;;;;;;5023989;28;20041;-81
2024/02/22 09:08:02;;;;;;;1.02;0.93;;;;;;;;;;5039059;28;20057;-81
2024/02/22 09:10:29;;;;;;;1.20;1.10;;;;;;;;;;5022431;28;20028;-81
2024/02/22 09:12:55;;;;;;;0.88;0.77;;;;;;;;;;5023523;28;20038;-80
2024/02/22 09:15:23;;;;;;;2.00;1.30;;;;;;;;;;5050090;28;20021;-80
2024/02/22 09:17:49;;;;;;;2.15;1.30;;;;;;;;;;5016253;28;20030;-81
2024/02/22 09:20:18;;;;;;;3.40;1.60;;;;;;;;;;5020800;28;20025;-82
2024/02/22 09:22:44;;;;;;;1.50;1.40;;;;;;;;;;5030698;28;20037;-80
2024/02/22 09:25:11;;;;;;;1.67;1.55;;;;;;;;;;5034719;28;20048;-79
2024/02/22 09:27:37;;;;;;;2.97;1.48;;;;;;;;;;5029434;28;20053;-81
2024/02/22 09:30:04;;;;;;;1.75;1.40;;;;;;;;;;5038463;28;20034;-81
2024/02/22 09:32:30;;;;;;;2.95;1.20;;;;;;;;;;5026416;28;20033;-82
2024/02/22 09:34:57;;;;;;;1.40;1.30;;;;;;;;;;5026107;28;20041;-81
2024/02/22 09:37:27;;;;;;;1.92;1.33;;;;;;;;;;5046747;28;20033;-81
2024/02/22 09:39:53;;;;;;;1.27;0.90;;;;;;;;;;5027248;28;20018;-80
2024/02/22 09:42:19;;;;;;;1.30;1.20;;;;;;;;;;5022074;28;20022;-82
2024/02/22 09:44:46;;;;;;;1.33;1.00;;;;;;;;;;5024693;28;20397;-81
2024/02/22 09:47:15;;;;;;;1.40;1.10;;;;;;;;;;5023378;28;20026;-81
2024/02/22 09:49:42;;;;;;;1.17;1.08;;;;;;;;;;5023074;28;20026;-80
2024/02/22 09:52:10;;;;;;;1.17;1.00;;;;;;;;;;5033603;28;20022;-81
2024/02/22 09:54:36;;;;;;;1.70;1.13;;;;;;;;;;5056265;28;20044;-79
2024/02/22 09:57:02;;;;;;;1.10;1.00;;;;;;;;;;5058986;28;20092;-81
2024/02/22 09:59:28;;;;;;;0.75;0.75;;;;;;;;;;5046285;28;20030;-81
2024/02/22 10:01:57;;;;;;;1.27;0.77;;;;;;;;;;5048854;28;20010;-81
2024/02/22 10:04:23;;;;;;;1.10;1.00;;;;;;;;;;5044998;28;20009;-79
2024/02/22 10:06:49;;;;;;;0.90;0.90;;;;;;;;;;5033867;28;20041;-80
2024/02/22 10:09:16;;;;;;;1.20;0.90;;;;;;;;;;5031279;28;20026;-80
2024/02/22 10:11:46;;;;;;;2.13;1.20;;;;;;;;;;5032680;28;20049;-82
2024/02/22 10:14:16;;;;;;;1.10;1.00;;;;;;;;;;5034727;28;20030;-81
2024/02/22 10:16:45;;;;;;;2.22;1.25;;;;;;;;;;5040602;28;20075;-80
2024/02/22 10:19:15;;;;;;;1.63;1.42;;;;;;;;;;5041522;28;20532;-81
2024/02/22 10:21:42;;;;;;;2.45;1.38;;;;;;;;;;5026004;28;20050;-80
2024/02/22 10:24:09;;;;;;;2.55;1.50;;;;;;;;;;5032120;28;20017;-82
2024/02/22 10:26:35;;;;;;;2.20;1.60;;;;;;;;;;5031748;28;20033;-80
2024/02/22 10:29:08;;;;;;;2.35;1.70;;;;;;;;;;5046221;28;20109;-83
2024/02/22 10:31:40;;;;;;;1.65;1.48;;;;;;;;;;5037799;28;20030;-81
2024/02/22 10:34:06;;;;;;;;;;;;;;;;;;5037991;28;20480;-82
2024/02/22 10:36:33;;;;;;;1.38;1.20;;;;;;;;;;5024728;28;19905;-82
2024/02/22 10:38:59;;;;;;;1.10;1.00;;;;;;;;;;5024145;28;20018;-82
2024/02/22 10:41:26;;;;;;;2.20;1.25;;;;;;;;;;5017230;28;20041;-81
2024/02/22 10:43:53;;;;;;;2.00;1.40;;;;;;;;;;5025255;28;20509;-81
2024/02/22 10:46:19;;;;;;;1.75;1.17;;;;;;;;;;5027741;28;20469;-81
2024/02/22 10:48:48;;;;;;;1.20;1.10;;;;;;;;;;5027755;28;20034;-81
2024/02/22 10:51:16;;;;;;;1.77;1.20;;;;;;;;;;5025786;28;20386;-81
2024/02/22 10:53:43;;;;;;;1.50;1.30;;;;;;;;;;5036993;28;20033;-80
2024/02/22 10:56:11;;;;;;;1.23;0.90;;;;;;;;;;5026970;28;20037;-81
2024/02/22 10:58:38;;;;;;;0.95;0.80;;;;;;;;;;5035121;28;20018;-82
2024/02/22 11:01:10;;;;;;;1.17;1.10;;;;;;;;;;5037359;28;20026;-81
2024/02/22 11:03:38;;;;;;;;;;;;;;;;;;5027501;28;20024;-80
2024/02/22 11:06:04;;;;;;;0.95;0.90;;;;;;;;;;5037905;28;19989;-82
2024/02/22 11:08:30;;;;;;;1.02;0.88;;;;;;;;;;5037779;28;20350;-82
2024/02/22 11:11:19;;;;;;;1.13;1.05;;;;;;;;;;5021131;28;20072;-80
2024/02/22 11:13:55;;;;;;;0.73;0.73;;;;;;;;;;5026625;28;20086;-81
2024/02/22 11:16:21;;;;;;;1.48;1.17;;;;;;;;;;5022759;28;20049;-81
2024/02/22 11:18:49;;;;;;;0.70;0.70;;;;;;;;;;5022000;28;20104;-80
2024/02/22 11:21:15;;;;;;;0.70;0.70;;;;;;;;;;5034476;28;20035;-81
2024/02/22 11:23:41;;;;;;;1.15;0.80;;;;;;;;;;5034605;28;20021;-81
2024/02/22 11:26:07;;;;;;;0.95;0.90;;;;;;;;;;5025732;28;20032;-82
2024/02/22 11:28:33;;;;;;;1.02;0.60;;;;;;;;;;5056930;28;20113;-82
2024/02/22 11:31:12;;;;;;;1.10;0.80;;;;;;;;;;5024825;28;20030;-82
2024/02/22 11:33:39;;;;;;;1.10;0.80;;;;;;;;;;5031673;28;20097;-81
2024/02/22 11:36:05;;;;;;;0.82;0.82;;;;;;;;;;5037309;28;20095;-82
2024/02/22 11:38:32;;;;;;;0.70;0.70;;;;;;;;;;5027902;28;20029;-82
2024/02/22 11:41:05;;;;;;;0.98;0.98;;;;;;;;;;5032973;28;20026;-81
2024/02/22 11:43:31;;;;;;;1.08;1.00;;;;;;;;;;5049648;28;20101;-81
2024/02/22 11:46:01;;;;;;;0.80;0.80;;;;;;;;;;5029536;28;20025;-81
2024/02/22 11:48:27;;;;;;;0.55;0.55;;;;;;;;;;5050064;28;20037;-82
2024/02/22 11:50:53;;;;;;;0.75;0.70;;;;;;;;;;5027151;28;20037;-81
2024/02/22 11:53:19;;;;;;;0.50;0.50;;;;;;;;;;5022146;28;20025;-82
2024/02/22 11:55:51;;;;;;;0.55;0.50;;;;;;;;;;5031424;28;20041;-81
2024/02/22 11:58:18;;;;;;;0.70;0.70;;;;;;;;;;5040129;28;20018;-79
2024/02/22 12:00:45;;;;;;;0.55;0.55;;;;;;;;;;5022622;28;20030;-81
2024/02/22 12:03:12;;;;;;;1.00;0.98;;;;;;;;;;5021927;28;20119;-82
2024/02/22 12:05:39;;;;;;;0.73;0.70;;;;;;;;;;5022974;28;20461;-81
2024/02/22 12:08:05;;;;;;;0.85;0.80;;;;;;;;;;5023100;28;20093;-82
2024/02/22 12:10:31;;;;;;;0.70;0.70;;;;;;;;;;5023978;28;20034;-80
2024/02/22 12:13:02;;;;;;;0.90;0.70;;;;;;;;;;5021949;28;20026;-82
2024/02/22 12:15:28;;;;;;;1.08;0.95;;;;;;;;;;5019874;28;20032;-81
2024/02/22 12:17:55;;;;;;;0.70;0.70;;;;;;;;;;5021741;28;20021;-81
2024/02/22 12:20:26;;;;;;;0.70;0.70;;;;;;;;;;5024082;28;20077;-81
2024/02/22 12:22:55;;;;;;;0.82;0.82;;;;;;;;;;5023157;28;20022;-81
2024/02/22 12:25:21;;;;;;;1.52;1.10;;;;;;;;;;5031765;28;20030;-82
2024/02/22 12:27:54;;;;;;;0.80;0.80;;;;;;;;;;5031707;28;20033;-81
2024/02/22 12:30:22;;;;;;;1.00;0.82;;;;;;;;;;5021346;28;20494;-81
2024/02/22 12:32:49;;;;;;;0.80;0.80;;;;;;;;;;5023199;28;20041;-82
2024/02/22 12:35:16;;;;;;;1.08;0.90;;;;;;;;;;5022644;28;20026;-81
2024/02/22 12:37:42;;;;;;;1.02;0.93;;;;;;;;;;5024508;28;20045;-82
2024/02/22 12:40:09;;;;;;;0.50;0.50;;;;;;;;;;5026427;28;20121;-81
2024/02/22 12:42:36;;;;;;;0.60;0.60;;;;;;;;;;5031698;28;20033;-81
2024/02/22 12:45:02;;;;;;;0.90;0.80;;;;;;;;;;5039409;28;20050;-81
2024/02/22 12:47:28;;;;;;;1.27;1.00;;;;;;;;;;5037582;28;20042;-82
2024/02/22 12:49:59;;;;;;;1.15;1.02;;;;;;;;;;5021709;28;20029;-83
2024/02/22 12:52:25;;;;;;;1.20;1.10;;;;;;;;;;5023968;28;20091;-79
2024/02/22 12:54:53;;;;;;;1.73;0.90;;;;;;;;;;5016355;28;20026;-78
2024/02/22 12:57:19;;;;;;;0.80;0.80;;;;;;;;;;5015774;28;20018;-81
2024/02/22 12:59:45;;;;;;;0.85;0.85;;;;;;;;;;5023367;28;20029;-80
2024/02/22 13:02:11;;;;;;;0.80;0.80;;;;;;;;;;5012659;28;20558;-79
2024/02/22 13:04:38;;;;;;;0.77;0.77;;;;;;;;;;5026666;28;20041;-79
2024/02/22 13:07:04;;;;;;;0.60;0.60;;;;;;;;;;5016228;28;20029;-79
2024/02/22 13:09:31;;;;;;;0.95;0.68;;;;;;;;;;5018753;28;20090;-80
2024/02/22 13:11:57;;;;;;;0.80;0.80;;;;;;;;;;5037985;28;20038;-79
2024/02/22 13:14:24;;;;;;;0.57;0.57;;;;;;;;;;5018908;28;20026;-79
2024/02/22 13:16:50;;;;;;;0.73;0.70;;;;;;;;;;5017414;28;20037;-81
2024/02/22 13:19:17;;;;;;;0.90;0.90;;;;;;;;;;5018286;28;20118;-80
2024/02/22 13:21:43;;;;;;;1.42;1.10;;;;;;;;;;5020010;28;20449;-81
2024/02/22 13:24:09;;;;;;;0.60;0.60;;;;;;;;;;5019670;28;20025;-80
2024/02/22 13:26:35;;;;;;;0.75;0.75;;;;;;;;;;5033613;28;20056;-80
2024/02/22 13:29:02;;;;;;;0.60;0.60;;;;;;;;;;5026574;28;20021;-79
2024/02/22 13:31:28;;;;;;;0.63;0.63;;;;;;;;;;5013690;28;20096;-80
2024/02/22 13:33:54;;;;;;;0.70;0.70;;;;;;;;;;5022016;28;20022;-80
2024/02/22 13:36:20;;;;;;;1.02;0.80;;;;;;;;;;5023235;28;20014;-81
2024/02/22 13:38:46;;;;;;;0.80;0.80;;;;;;;;;;5024590;28;20084;-80
2024/02/22 13:41:12;;;;;;;0.60;0.57;;;;;;;;;;5039187;28;20060;-80
2024/02/22 13:43:38;;;;;;;0.70;0.70;;;;;;;;;;5024631;28;20026;-79
2024/02/22 13:46:04;;;;;;;0.47;0.47;;;;;;;;;;5023239;28;20029;-79
2024/02/22 13:48:31;;;;;;;1.38;0.65;;;;;;;;;;5016999;28;20100;-80
2024/02/22 13:50:57;;;;;;;0.73;0.68;;;;;;;;;;5017520;28;20524;-78
2024/02/22 13:53:23;;;;;;;0.38;0.38;;;;;;;;;;5018934;28;20021;-80
2024/02/22 13:55:50;;;;;;;0.60;0.60;;;;;;;;;;5033867;28;20390;-80
2024/02/22 13:58:16;;;;;;;0.80;0.80;;;;;;;;;;5021936;28;20029;-80
2024/02/22 14:00:42;;;;;;;0.50;0.50;;;;;;;;;;5022568;28;20037;-79
2024/02/22 14:03:09;;;;;;;0.60;0.60;;;;;;;;;;5026050;28;20026;-79
2024/02/22 14:05:36;;;;;;;0.60;0.60;;;;;;;;;;5018845;28;20030;-79
2024/02/22 14:08:02;;;;;;;0.93;0.85;;;;;;;;;;5032558;28;20037;-79
2024/02/22 14:10:30;;;;;;;0.52;0.52;;;;;;;;;;5030793;28;20365;-78
2024/02/22 14:12:58;;;;;;;0.70;0.65;;;;;;;;;;5028680;28;20429;-77
2024/02/22 14:15:24;;;;;;;0.60;0.60;;;;;;;;;;5015472;28;20087;-79
2024/02/22 14:17:50;;;;;;;0.30;0.30;;;;;;;;;;5011703;28;20018;-78
2024/02/22 14:20:16;;;;;;;0.47;0.47;;;;;;;;;;5033230;28;20559;-81
2024/02/22 14:22:42;;;;;;;0.57;0.57;;;;;;;;;;5019331;28;20034;-81
2024/02/22 14:25:09;;;;;;;0.80;0.52;;;;;;;;;;5020446;28;20074;-79
2024/02/22 14:27:36;;;;;;;0.60;0.60;;;;;;;;;;5035534;28;20022;-79
2024/02/22 14:30:05;;;;;;;0.52;0.52;;;;;;;;;;5019664;28;20032;-80
2024/02/22 14:32:31;;;;;;;0.50;0.50;;;;;;;;;;5017350;28;20555;-79
2024/02/22 14:34:58;;;;;;;0.55;0.52;;;;;;;;;;5026538;28;20068;-82
2024/02/22 14:37:24;;;;;;;0.50;0.50;;;;;;;;;;5024030;28;20052;-78
2024/02/22 14:39:51;;;;;;;0.60;0.60;;;;;;;;;;5025665;28;20041;-78